Time;durP1;ratioP1;P1;durP2;ratioP2;P2;SDS_P1;SDS_P2;PMS_P1;PMS_P2;Temp;Humidity;BMP_temperature;BMP_pressure;BME280_temperature;BME280_humidity;BME280_pressure;Samples;Min_cycle;Max_cycle;Signal;HPM_P1;HPM_P2
2022/05/18 00:00:00;;;;;;;4.67;2.87;;;19.40;99.90;;;;;;5070025;28;20434;-40
2022/05/18 00:02:26;;;;;;;3.40;2.87;;;19.40;99.90;;;;;;5071730;28;20458;-39
2022/05/18 00:04:52;;;;;;;4.63;3.97;;;19.40;99.90;;;;;;5071517;28;20554;-39
2022/05/18 00:07:18;;;;;;;4.50;2.87;;;19.40;99.90;;;;;;5071668;28;20517;-40
2022/05/18 00:09:43;;;;;;;4.53;3.90;;;19.40;99.90;;;;;;5071067;28;20262;-38
2022/05/18 00:12:10;;;;;;;9.03;4.00;;;19.40;99.90;;;;;;5066286;28;20197;-41
2022/05/18 00:14:36;;;;;;;7.90;3.50;;;19.40;99.90;;;;;;5068592;28;20208;-39
2022/05/18 00:17:03;;;;;;;4.10;3.70;;;19.30;99.90;;;;;;5071599;28;20460;-41
2022/05/18 00:19:33;;;;;;;3.43;3.00;;;19.30;99.90;;;;;;5071289;28;20434;-40
2022/05/18 00:21:59;;;;;;;5.83;3.43;;;19.20;99.90;;;;;;5071278;28;20432;-38
2022/05/18 00:24:25;;;;;;;4.43;3.23;;;19.30;99.90;;;;;;5071229;28;20429;-40
2022/05/18 00:26:51;;;;;;;3.73;3.23;;;19.30;99.90;;;;;;5067889;28;20440;-40
2022/05/18 00:29:17;;;;;;;3.33;3.13;;;19.30;99.90;;;;;;5067089;28;20802;-39
2022/05/18 00:31:43;;;;;;;4.50;3.90;;;19.30;99.90;;;;;;5070789;28;20514;-38
2022/05/18 00:34:09;;;;;;;5.00;4.07;;;19.30;99.90;;;;;;5071014;28;20196;-39
2022/05/18 00:36:35;;;;;;;4.20;3.60;;;19.30;99.90;;;;;;5070395;28;20785;-39
2022/05/18 00:39:02;;;;;;;5.10;3.23;;;19.30;99.90;;;;;;5075050;28;20466;-42
2022/05/18 00:41:28;;;;;;;4.53;3.17;;;19.30;99.90;;;;;;5090812;28;20495;-39
2022/05/18 00:43:55;;;;;;;5.90;3.30;;;19.30;99.90;;;;;;5061464;28;20526;-39
2022/05/18 00:46:21;;;;;;;5.47;3.10;;;19.30;99.90;;;;;;5071003;28;20954;-39
2022/05/18 00:48:48;;;;;;;6.97;3.07;;;19.30;99.90;;;;;;5070757;28;20424;-39
2022/05/18 00:51:36;;;;;;;4.83;3.67;;;19.20;99.90;;;;;;5070312;28;20439;-39
2022/05/18 00:54:17;;;;;;;3.50;3.20;;;19.20;99.90;;;;;;5071020;28;20426;-39
2022/05/18 00:56:53;;;;;;;5.33;3.60;;;19.20;99.90;;;;;;5069475;28;20458;-39
2022/05/18 00:59:24;;;;;;;3.57;2.73;;;19.20;99.90;;;;;;5063774;28;21034;-40
2022/05/18 01:01:51;;;;;;;4.33;3.60;;;19.20;99.90;;;;;;5070045;28;20442;-44
2022/05/18 01:04:17;;;;;;;4.27;3.07;;;19.30;99.90;;;;;;5069562;28;20423;-39
2022/05/18 01:07:04;;;;;;;5.50;3.50;;;19.20;99.90;;;;;;5070467;28;20434;-38
2022/05/18 01:09:36;;;;;;;3.93;3.53;;;19.20;99.90;;;;;;5070342;28;20251;-40
2022/05/18 01:12:03;;;;;;;4.93;3.63;;;19.10;99.90;;;;;;5067168;28;20428;-39
2022/05/18 01:14:50;;;;;;;3.23;2.93;;;19.10;99.90;;;;;;5059354;28;20510;-38
2022/05/18 01:17:19;;;;;;;3.30;3.00;;;19.20;99.90;;;;;;5063570;28;20455;-39
2022/05/18 01:19:51;;;;;;;3.80;3.30;;;19.20;99.90;;;;;;5056943;28;20431;-39
2022/05/18 01:22:29;;;;;;;4.10;3.63;;;19.10;99.90;;;;;;5069895;28;20472;-40
2022/05/18 01:25:09;;;;;;;5.03;3.90;;;19.10;99.90;;;;;;5070508;28;20472;-41
2022/05/18 01:27:35;;;;;;;3.73;3.43;;;19.10;99.90;;;;;;5062857;28;20987;-39
2022/05/18 01:30:02;;;;;;;6.63;4.00;;;19.10;99.90;;;;;;5061956;28;20484;-39
2022/05/18 01:32:48;;;;;;;3.90;3.50;;;19.10;99.90;;;;;;5069638;28;20436;-39
2022/05/18 01:35:26;;;;;;;4.53;3.67;;;19.00;99.90;;;;;;5069211;28;20491;-40
2022/05/18 01:37:57;;;;;;;3.53;3.23;;;19.00;99.90;;;;;;5069945;28;20486;-39
2022/05/18 01:40:40;;;;;;;4.40;3.37;;;19.00;99.90;;;;;;5084953;28;20487;-39
2022/05/18 01:43:45;;;;;;;6.83;4.03;;;19.00;99.90;;;;;;5069324;28;20431;-40
2022/05/18 01:46:14;;;;;;;3.80;3.13;;;18.90;99.90;;;;;;5054313;28;20419;-39
2022/05/18 01:48:45;;;;;;;6.90;3.43;;;18.90;99.90;;;;;;5069686;28;20458;-39
2022/05/18 01:51:13;;;;;;;4.30;3.20;;;18.90;99.90;;;;;;5069118;28;20758;-39
2022/05/18 01:53:39;;;;;;;6.70;3.70;;;18.90;99.90;;;;;;5069626;28;20508;-39
2022/05/18 01:56:07;;;;;;;4.30;3.60;;;18.90;99.90;;;;;;5068381;28;20442;-39
2022/05/18 01:58:33;;;;;;;3.50;3.20;;;18.90;99.90;;;;;;5058584;28;20221;-39
2022/05/18 02:01:01;;;;;;;4.20;3.50;;;18.90;99.90;;;;;;5067775;28;20489;-39
2022/05/18 02:03:27;;;;;;;4.77;3.73;;;18.90;99.90;;;;;;5069245;28;20189;-39
2022/05/18 02:05:53;;;;;;;5.80;3.43;;;18.90;99.90;;;;;;5069448;28;20840;-39
2022/05/18 02:08:19;;;;;;;6.40;3.47;;;18.90;99.90;;;;;;5069533;28;20227;-39
2022/05/18 02:10:45;;;;;;;3.73;3.40;;;18.80;99.90;;;;;;5068746;28;21028;-40
2022/05/18 02:13:11;;;;;;;4.10;3.70;;;18.80;99.90;;;;;;5062997;28;20514;-39
2022/05/18 02:15:37;;;;;;;4.30;3.20;;;18.80;99.90;;;;;;5064615;28;20272;-38
2022/05/18 02:18:03;;;;;;;3.93;3.63;;;18.80;99.90;;;;;;5069158;28;20946;-39
2022/05/18 02:20:29;;;;;;;3.60;3.30;;;18.80;99.90;;;;;;5068443;28;20513;-39
2022/05/18 02:22:56;;;;;;;3.70;3.30;;;18.70;99.90;;;;;;5069096;28;20200;-39
2022/05/18 02:25:22;;;;;;;3.63;3.13;;;18.70;99.90;;;;;;5067909;28;20489;-38
2022/05/18 02:27:48;;;;;;;5.07;3.70;;;18.70;99.90;;;;;;5063999;28;20448;-40
2022/05/18 02:30:15;;;;;;;4.90;3.77;;;18.70;99.90;;;;;;5062455;28;20419;-38
2022/05/18 02:32:41;;;;;;;4.80;3.57;;;18.70;99.90;;;;;;5069151;28;20191;-38
2022/05/18 02:35:07;;;;;;;3.63;3.33;;;18.60;99.90;;;;;;5068041;28;20423;-39
2022/05/18 02:37:34;;;;;;;4.43;3.23;;;18.70;99.90;;;;;;5068945;28;20497;-39
2022/05/18 02:39:59;;;;;;;4.60;3.40;;;18.70;99.90;;;;;;5069136;28;20827;-39
2022/05/18 02:42:25;;;;;;;3.90;3.10;;;18.70;99.90;;;;;;5086230;28;20441;-39
2022/05/18 02:44:51;;;;;;;5.00;3.80;;;18.70;99.90;;;;;;5061477;28;20196;-39
2022/05/18 02:47:18;;;;;;;5.67;3.40;;;18.70;99.90;;;;;;5068899;28;20457;-40
2022/05/18 02:49:44;;;;;;;4.40;3.60;;;18.70;99.90;;;;;;5068269;28;20431;-38
2022/05/18 02:52:10;;;;;;;3.90;3.60;;;18.70;99.90;;;;;;5069167;28;20438;-39
2022/05/18 02:57:20;;;;;;;5.20;3.33;;;18.70;99.90;;;;;;5068954;28;20221;-38
2022/05/18 02:59:46;;;;;;;5.03;2.90;;;18.70;99.90;;;;;;5059079;28;21002;-38
2022/05/18 03:02:12;;;;;;;4.80;3.70;;;18.60;99.90;;;;;;5067368;28;20640;-39
2022/05/18 03:04:38;;;;;;;6.60;3.60;;;18.60;99.90;;;;;;5068807;28;20431;-39
2022/05/18 03:07:04;;;;;;;4.43;3.30;;;18.60;99.90;;;;;;5069069;28;20443;-40
2022/05/18 03:09:30;;;;;;;4.80;3.70;;;18.60;99.90;;;;;;5068664;28;20555;-39
2022/05/18 03:11:56;;;;;;;3.77;3.43;;;18.60;99.90;;;;;;5068221;28;20462;-38
2022/05/18 03:14:23;;;;;;;3.90;3.07;;;18.60;99.90;;;;;;5054353;28;20446;-38
2022/05/18 03:16:49;;;;;;;3.77;3.33;;;18.60;99.90;;;;;;5068217;28;20423;-39
2022/05/18 03:19:16;;;;;;;3.50;3.20;;;18.60;99.90;;;;;;5068782;28;20521;-39
2022/05/18 03:24:27;;;;;;;6.30;3.57;;;18.60;99.90;;;;;;5068701;28;20427;-38
2022/05/18 03:26:53;;;;;;;5.00;3.13;;;18.60;99.90;;;;;;5068474;28;20482;-38
2022/05/18 03:29:19;;;;;;;5.03;3.80;;;18.60;99.90;;;;;;5058360;28;21098;-39
2022/05/18 03:31:48;;;;;;;5.03;3.23;;;18.60;99.90;;;;;;5068584;28;20430;-39
2022/05/18 03:34:14;;;;;;;4.63;3.27;;;18.60;99.90;;;;;;5072508;28;20540;-39
2022/05/18 03:36:41;;;;;;;5.03;3.87;;;18.60;99.90;;;;;;5071366;28;20423;-39
2022/05/18 03:39:07;;;;;;;4.60;3.50;;;18.50;99.90;;;;;;5078161;28;20515;-39
2022/05/18 03:41:36;;;;;;;3.87;3.57;;;18.40;99.90;;;;;;5091721;28;20418;-38
2022/05/18 03:44:06;;;;;;;5.13;3.07;;;18.40;99.90;;;;;;5074604;28;20447;-39
2022/05/18 03:46:33;;;;;;;4.10;3.60;;;18.50;99.90;;;;;;5066876;28;20520;-38
2022/05/18 03:48:59;;;;;;;3.77;3.40;;;18.50;99.90;;;;;;5071966;28;20427;-39
2022/05/18 03:51:25;;;;;;;4.07;3.50;;;18.50;99.90;;;;;;5071216;28;20435;-39
2022/05/18 03:53:52;;;;;;;7.30;3.57;;;18.50;99.90;;;;;;5070862;28;20427;-40
2022/05/18 03:56:18;;;;;;;4.50;3.40;;;18.60;99.90;;;;;;5071557;28;20454;-41
2022/05/18 03:58:44;;;;;;;4.63;4.00;;;18.50;99.90;;;;;;5064597;28;20479;-38
2022/05/18 04:01:10;;;;;;;4.17;3.80;;;18.40;99.90;;;;;;5067307;28;20454;-39
2022/05/18 04:03:44;;;;;;;5.53;3.63;;;18.50;99.90;;;;;;5071463;28;20427;-39
2022/05/18 04:06:10;;;;;;;5.67;3.93;;;18.50;99.90;;;;;;5071834;28;20431;-39
2022/05/18 04:08:36;;;;;;;5.33;4.23;;;18.50;99.90;;;;;;5071661;28;20488;-40
2022/05/18 04:11:02;;;;;;;4.80;3.83;;;18.50;99.90;;;;;;5070869;28;20439;-39
2022/05/18 04:13:28;;;;;;;4.47;3.70;;;18.50;99.90;;;;;;5066686;28;20446;-38
2022/05/18 04:15:55;;;;;;;4.67;3.77;;;18.60;99.90;;;;;;5069419;28;20428;-38
2022/05/18 04:18:22;;;;;;;4.67;3.50;;;18.60;99.90;;;;;;5071425;28;20204;-40
2022/05/18 04:20:49;;;;;;;4.60;3.60;;;18.60;99.90;;;;;;5070792;28;20453;-40
2022/05/18 04:23:15;;;;;;;4.43;4.03;;;18.50;99.90;;;;;;5071270;28;20424;-38
2022/05/18 04:25:41;;;;;;;6.43;3.53;;;18.60;99.90;;;;;;5071527;28;20945;-38
2022/05/18 04:28:08;;;;;;;5.40;4.50;;;18.70;99.90;;;;;;5071259;28;20427;-39
2022/05/18 04:30:35;;;;;;;5.37;3.33;;;18.70;99.90;;;;;;5061678;28;20522;-39
2022/05/18 04:33:01;;;;;;;6.00;4.27;;;18.70;99.90;;;;;;5071211;28;20466;-39
2022/05/18 04:35:28;;;;;;;4.40;4.00;;;18.70;99.90;;;;;;5069891;28;20492;-39
2022/05/18 04:37:55;;;;;;;4.13;3.70;;;18.70;99.90;;;;;;5086483;28;21034;-38
2022/05/18 04:40:21;;;;;;;4.33;3.80;;;18.70;99.90;;;;;;5086885;28;20434;-40
2022/05/18 04:42:47;;;;;;;4.17;3.77;;;18.70;99.90;;;;;;5091555;28;20501;-39
2022/05/18 04:45:16;;;;;;;4.60;3.70;;;18.70;99.90;;;;;;5061384;28;20462;-39
2022/05/18 04:47:42;;;;;;;4.47;4.03;;;18.70;99.90;;;;;;5070869;28;20459;-38
2022/05/18 04:50:09;;;;;;;9.37;4.23;;;18.80;99.90;;;;;;5070316;28;20473;-38
2022/05/18 04:52:35;;;;;;;5.23;4.03;;;18.80;99.90;;;;;;5065577;28;20204;-39
2022/05/18 04:55:01;;;;;;;5.50;4.20;;;19.00;99.90;;;;;;5069710;28;20755;-38
2022/05/18 04:57:27;;;;;;;6.83;4.10;;;19.00;99.90;;;;;;5067089;28;20754;-39
2022/05/18 04:59:53;;;;;;;4.27;3.87;;;19.10;99.90;;;;;;5060052;28;20443;-40
2022/05/18 05:02:18;;;;;;;4.93;4.20;;;19.10;99.90;;;;;;5070710;28;20426;-40
2022/05/18 05:04:45;;;;;;;4.13;3.73;;;19.20;99.90;;;;;;5070599;28;20185;-39
2022/05/18 05:07:11;;;;;;;6.13;4.27;;;19.20;99.90;;;;;;5068864;28;20813;-38
2022/05/18 05:09:37;;;;;;;4.47;3.77;;;19.20;99.90;;;;;;5069286;28;20445;-39
2022/05/18 05:12:04;;;;;;;5.80;3.57;;;19.30;99.90;;;;;;5063183;28;20439;-38
2022/05/18 05:14:32;;;;;;;9.03;3.80;;;19.30;99.90;;;;;;5068233;28;20995;-38
2022/05/18 05:16:59;;;;;;;4.17;3.80;;;19.30;99.90;;;;;;5068998;28;20815;-39
2022/05/18 05:19:25;;;;;;;3.93;3.47;;;19.30;99.90;;;;;;5070410;28;20428;-38
2022/05/18 05:21:51;;;;;;;4.27;3.80;;;19.40;99.90;;;;;;5069588;28;20480;-38
2022/05/18 05:24:17;;;;;;;4.17;3.87;;;19.30;99.90;;;;;;5070360;28;20208;-39
2022/05/18 05:26:43;;;;;;;6.40;3.63;;;19.40;99.90;;;;;;5070264;28;20189;-38
2022/05/18 05:29:10;;;;;;;4.37;3.83;;;19.40;99.90;;;;;;5065977;28;20431;-39
2022/05/18 05:31:36;;;;;;;4.10;3.43;;;19.40;99.90;;;;;;5064827;28;20435;-39
2022/05/18 05:34:02;;;;;;;4.30;3.90;;;19.40;99.90;;;;;;5070033;28;21130;-38
2022/05/18 05:36:28;;;;;;;5.20;3.73;;;19.50;99.90;;;;;;5069942;28;20427;-38
2022/05/18 05:38:54;;;;;;;5.50;3.47;;;19.50;99.90;;;;;;5073676;28;20825;-40
2022/05/18 05:41:20;;;;;;;4.30;3.70;;;19.60;99.90;;;;;;5089558;28;20981;-38
2022/05/18 05:43:46;;;;;;;4.13;3.83;;;19.60;99.90;;;;;;5083182;28;20185;-39
2022/05/18 05:46:17;;;;;;;3.83;3.43;;;19.70;99.90;;;;;;5062047;28;20432;-38
2022/05/18 05:48:44;;;;;;;4.00;3.60;;;19.80;99.90;;;;;;5069332;28;20185;-40
2022/05/18 05:51:13;;;;;;;5.03;4.00;;;19.90;99.90;;;;;;5067894;28;20430;-39
2022/05/18 05:53:43;;;;;;;4.00;3.30;;;20.00;99.90;;;;;;5064538;28;20447;-39
2022/05/18 05:56:10;;;;;;;4.37;3.10;;;20.20;99.90;;;;;;5067905;28;20530;-39
2022/05/18 05:58:37;;;;;;;4.50;3.30;;;20.40;99.90;;;;;;5065127;28;20600;-39
2022/05/18 06:01:05;;;;;;;6.43;3.50;;;20.50;99.90;;;;;;5055425;28;20427;-39
2022/05/18 06:03:32;;;;;;;4.03;3.57;;;20.70;99.90;;;;;;5082869;28;20500;-39
2022/05/18 06:05:57;;;;;;;3.97;3.60;;;20.90;99.90;;;;;;5066093;28;20419;-38
2022/05/18 06:08:23;;;;;;;6.00;3.70;;;21.10;99.90;;;;;;5069155;28;20423;-39
2022/05/18 06:10:49;;;;;;;3.20;2.90;;;21.30;99.90;;;;;;5072100;28;20189;-38
2022/05/18 06:13:15;;;;;;;3.53;3.10;;;21.40;99.90;;;;;;5078201;28;20418;-38
2022/05/18 06:15:41;;;;;;;4.80;3.30;;;21.50;99.90;;;;;;5063288;28;20200;-39
2022/05/18 06:18:07;;;;;;;5.03;3.27;;;21.60;99.90;;;;;;5068870;28;20212;-38
2022/05/18 06:20:34;;;;;;;6.50;3.40;;;21.70;99.90;;;;;;5067156;28;20423;-38
2022/05/18 06:23:02;;;;;;;3.90;3.40;;;21.80;99.90;;;;;;5068636;28;20424;-38
2022/05/18 06:25:29;;;;;;;3.97;2.90;;;21.90;99.90;;;;;;5069196;28;20423;-39
2022/05/18 06:27:54;;;;;;;6.37;3.77;;;22.00;99.90;;;;;;5069269;28;20455;-38
2022/05/18 06:30:20;;;;;;;3.43;3.00;;;22.10;99.90;;;;;;5060063;28;20440;-38
2022/05/18 06:32:46;;;;;;;3.40;3.10;;;22.20;99.90;;;;;;5069018;28;20196;-39
2022/05/18 06:35:12;;;;;;;4.07;3.40;;;22.20;99.90;;;;;;5069068;28;20438;-38
2022/05/18 06:37:37;;;;;;;3.70;3.37;;;22.30;99.90;;;;;;5069052;28;20209;-39
2022/05/18 06:40:06;;;;;;;5.43;3.50;;;22.40;99.90;;;;;;5082474;28;20677;-38
2022/05/18 06:42:32;;;;;;;4.10;3.30;;;22.50;99.90;;;;;;5089458;28;20184;-39
2022/05/18 06:44:58;;;;;;;4.70;3.90;;;22.60;99.90;;;;;;5074831;28;20440;-39
2022/05/18 06:47:25;;;;;;;3.40;3.10;;;22.70;99.90;;;;;;5064132;28;20422;-38
2022/05/18 06:49:51;;;;;;;4.83;2.90;;;22.80;99.90;;;;;;5068308;28;20423;-38
2022/05/18 06:52:18;;;;;;;4.40;3.40;;;22.90;99.90;;;;;;5069072;28;20821;-41
2022/05/18 06:54:44;;;;;;;3.77;2.80;;;23.00;99.90;;;;;;5068777;28;21098;-39
2022/05/18 06:57:10;;;;;;;4.03;3.17;;;23.10;99.90;;;;;;5068700;28;20453;-38
2022/05/18 06:59:37;;;;;;;6.10;3.10;;;23.30;99.90;;;;;;5064546;28;20712;-38
2022/05/18 07:02:03;;;;;;;3.03;2.80;;;23.40;99.90;;;;;;5061266;28;20485;-39
2022/05/18 07:04:28;;;;;;;3.30;3.00;;;23.50;99.90;;;;;;5072861;28;20196;-39
2022/05/18 07:06:54;;;;;;;3.60;3.23;;;23.60;99.90;;;;;;5071594;28;20419;-39
2022/05/18 07:09:22;;;;;;;3.43;3.00;;;23.80;99.90;;;;;;5072987;28;20627;-39
2022/05/18 07:11:49;;;;;;;3.60;3.30;;;23.80;99.90;;;;;;5072412;28;20435;-39
2022/05/18 07:14:19;;;;;;;5.13;3.10;;;23.90;99.90;;;;;;5072761;28;20425;-39
2022/05/18 07:16:45;;;;;;;10.70;3.73;;;23.90;99.90;;;;;;5062027;28;20598;-39
2022/05/18 07:19:11;;;;;;;3.53;3.23;;;23.80;99.90;;;;;;5072681;28;20465;-39
2022/05/18 07:21:37;;;;;;;3.80;2.77;;;23.80;99.90;;;;;;5071990;28;20415;-39
2022/05/18 07:24:03;;;;;;;2.87;2.67;;;23.80;99.90;;;;;;5072646;28;20415;-40
2022/05/18 07:26:29;;;;;;;3.27;2.97;;;23.80;99.90;;;;;;5072610;28;20196;-42
2022/05/18 07:28:55;;;;;;;4.63;2.90;;;23.90;99.90;;;;;;5072500;28;20516;-39
2022/05/18 07:31:21;;;;;;;5.67;3.37;;;24.00;99.90;;;;;;5062431;28;20843;-44
2022/05/18 07:33:47;;;;;;;3.70;3.00;;;24.00;99.90;;;;;;5072382;28;20504;-40
2022/05/18 07:36:14;;;;;;;3.77;3.37;;;24.00;99.90;;;;;;5072376;28;20780;-41
2022/05/18 07:38:40;;;;;;;3.97;2.77;;;24.00;99.90;;;;;;5074095;28;20208;-40
2022/05/18 07:41:08;;;;;;;3.70;3.23;;;24.00;99.90;;;;;;5091731;28;20457;-41
2022/05/18 07:43:35;;;;;;;3.17;2.90;;;24.00;99.90;;;;;;5092580;28;20939;-40
2022/05/18 07:46:00;;;;;;;4.53;2.73;;;24.00;99.90;;;;;;5069762;28;20508;-39
2022/05/18 07:48:28;;;;;;;4.00;3.13;;;24.00;99.90;;;;;;5072138;28;21144;-41
2022/05/18 07:50:53;;;;;;;3.20;2.73;;;24.00;99.90;;;;;;5081181;28;20197;-41
2022/05/18 07:53:20;;;;;;;4.77;3.43;;;24.00;99.90;;;;;;5089372;28;20484;-44
2022/05/18 07:55:47;;;;;;;3.20;2.83;;;24.00;99.90;;;;;;5080676;28;20491;-41
2022/05/18 07:58:15;;;;;;;4.60;3.10;;;24.00;99.90;;;;;;5092128;28;20458;-41
2022/05/18 08:00:41;;;;;;;3.43;3.13;;;24.00;99.90;;;;;;5071816;28;20500;-43
2022/05/18 08:03:09;;;;;;;3.50;2.93;;;24.10;99.90;;;;;;5071585;28;20427;-45
2022/05/18 08:05:36;;;;;;;3.23;2.90;;;24.10;99.90;;;;;;5070440;28;20411;-41
2022/05/18 08:08:12;;;;;;;3.00;2.70;;;24.00;99.90;;;;;;5071760;28;20904;-40
2022/05/18 08:16:12;;;;;;;2.93;2.73;;;24.00;99.90;;;;;;5062742;28;20518;-40
2022/05/18 08:18:38;;;;;;;2.97;2.30;;;23.90;99.90;;;;;;5071150;28;20471;-39
2022/05/18 08:21:04;;;;;;;2.87;2.60;;;24.00;99.90;;;;;;5070886;28;20472;-40
2022/05/18 08:23:30;;;;;;;2.80;2.57;;;24.00;99.90;;;;;;5071343;28;20450;-39
2022/05/18 08:25:57;;;;;;;3.50;3.03;;;24.00;99.90;;;;;;5071374;28;20482;-40
2022/05/18 08:28:23;;;;;;;3.17;2.40;;;24.00;99.90;;;;;;5071446;28;20448;-40
2022/05/18 08:30:49;;;;;;;2.80;2.50;;;24.00;99.90;;;;;;5059631;28;20467;-39
2022/05/18 08:33:15;;;;;;;2.87;2.60;;;24.00;99.90;;;;;;5063877;28;20431;-40
2022/05/18 08:35:44;;;;;;;4.50;2.90;;;24.00;99.80;;;;;;5071146;28;20778;-40
2022/05/18 08:38:10;;;;;;;3.67;2.57;;;24.10;99.90;;;;;;5071284;28;20470;-44
2022/05/18 08:40:38;;;;;;;3.37;2.60;;;24.10;99.40;;;;;;5089739;28;20805;-41
2022/05/18 08:43:08;;;;;;;2.90;2.67;;;24.20;99.50;;;;;;5062700;28;20969;-43
2022/05/18 08:45:39;;;;;;;3.00;2.80;;;24.20;99.40;;;;;;5055418;28;20949;-41
2022/05/18 08:48:13;;;;;;;3.43;2.80;;;24.30;99.70;;;;;;5068530;28;20435;-39
2022/05/18 08:50:39;;;;;;;2.67;2.47;;;24.40;99.40;;;;;;5065967;28;20516;-41
2022/05/18 08:53:35;;;;;;;6.83;2.83;;;24.40;99.70;;;;;;5070609;28;20451;-43
2022/05/18 08:56:27;;;;;;;3.73;2.53;;;24.50;98.40;;;;;;5070958;28;20442;-39
2022/05/18 08:58:54;;;;;;;4.00;3.00;;;24.60;98.60;;;;;;5052912;28;20838;-40
2022/05/18 09:01:25;;;;;;;2.87;2.67;;;24.70;98.70;;;;;;5061663;28;20787;-44
2022/05/18 09:03:57;;;;;;;2.83;2.63;;;24.80;98.60;;;;;;5070469;28;20419;-41
2022/05/18 09:06:50;;;;;;;4.07;3.30;;;24.80;98.30;;;;;;5069239;28;20419;-44
2022/05/18 09:12:25;;;;;;;2.80;2.43;;;24.90;98.00;;;;;;5070627;28;20424;-39
2022/05/18 09:14:52;;;;;;;3.80;3.00;;;25.00;97.50;;;;;;5070541;28;20471;-41
2022/05/18 09:17:55;;;;;;;3.10;2.80;;;25.10;98.20;;;;;;5059299;28;20312;-40
2022/05/18 09:20:26;;;;;;;3.53;2.30;;;25.20;97.10;;;;;;5020509;28;20433;-41
2022/05/18 09:23:17;;;;;;;3.57;3.23;;;25.20;96.70;;;;;;5063380;28;20424;-40
2022/05/18 09:25:58;;;;;;;3.50;3.20;;;25.30;96.80;;;;;;5069231;28;20415;-42
2022/05/18 09:28:36;;;;;;;3.93;2.50;;;25.40;97.20;;;;;;5070564;28;20484;-42
2022/05/18 09:31:21;;;;;;;2.80;2.60;;;25.50;97.60;;;;;;5064519;28;20435;-40
2022/05/18 09:34:29;;;;;;;7.13;3.00;;;25.60;96.70;;;;;;5066903;28;20427;-41
2022/05/18 09:37:32;;;;;;;3.00;2.70;;;25.70;96.50;;;;;;5064429;28;20773;-42
2022/05/18 09:40:18;;;;;;;4.53;2.73;;;25.80;96.30;;;;;;5071352;28;21148;-42
2022/05/18 09:42:51;;;;;;;3.23;2.93;;;25.80;96.10;;;;;;5090381;28;20418;-39
2022/05/18 09:45:20;;;;;;;4.13;3.60;;;25.90;95.70;;;;;;5089899;28;20466;-40
2022/05/18 09:47:54;;;;;;;3.57;3.20;;;25.90;94.80;;;;;;5060695;28;20415;-41
2022/05/18 09:50:21;;;;;;;3.00;2.70;;;25.90;95.20;;;;;;5069129;28;20506;-43
2022/05/18 09:52:48;;;;;;;3.90;2.87;;;26.00;95.40;;;;;;5069828;28;20430;-40
2022/05/18 09:55:23;;;;;;;3.30;3.00;;;26.20;95.80;;;;;;5069704;28;21364;-42
2022/05/18 09:57:58;;;;;;;4.50;2.87;;;26.30;95.10;;;;;;5069743;28;20471;-39
2022/05/18 10:00:29;;;;;;;4.27;2.63;;;26.30;94.30;;;;;;5068263;28;20422;-39
2022/05/18 10:08:44;;;;;;;3.50;2.97;;;26.50;93.40;;;;;;5069629;28;20428;-43
2022/05/18 10:11:33;;;;;;;3.77;2.90;;;26.60;93.40;;;;;;5068680;28;20945;-40
2022/05/18 10:14:23;;;;;;;6.00;3.20;;;26.70;92.60;;;;;;5064142;28;20470;-40
2022/05/18 10:17:08;;;;;;;3.40;3.10;;;26.70;92.30;;;;;;5058269;28;20436;-40
2022/05/18 10:19:45;;;;;;;4.23;3.27;;;26.80;92.50;;;;;;5068167;28;20419;-41
2022/05/18 10:22:17;;;;;;;4.13;3.30;;;26.90;92.10;;;;;;5069279;28;20928;-40
2022/05/18 10:24:50;;;;;;;3.53;3.20;;;26.90;91.40;;;;;;5069522;28;20422;-44
2022/05/18 10:27:16;;;;;;;6.63;3.13;;;27.00;91.10;;;;;;5069319;28;20415;-43
2022/05/18 10:29:43;;;;;;;5.30;2.90;;;27.10;92.10;;;;;;5069331;28;20412;-42
2022/05/18 10:32:22;;;;;;;5.40;3.43;;;27.20;92.70;;;;;;5060319;28;20584;-40
2022/05/18 10:34:51;;;;;;;3.37;3.07;;;27.20;89.50;;;;;;5069156;28;20522;-43
2022/05/18 10:37:30;;;;;;;3.10;2.80;;;27.20;90.50;;;;;;5067023;28;21326;-40
2022/05/18 10:40:14;;;;;;;3.50;3.20;;;27.30;90.80;;;;;;5074713;28;20464;-43
2022/05/18 10:42:44;;;;;;;3.17;2.87;;;27.20;90.30;;;;;;5089168;28;20648;-41
2022/05/18 10:45:25;;;;;;;3.97;2.83;;;27.30;91.10;;;;;;5088200;28;20418;-44
2022/05/18 10:47:57;;;;;;;3.10;2.80;;;27.30;89.20;;;;;;5055319;28;20442;-40
2022/05/18 10:50:35;;;;;;;3.63;3.30;;;27.30;89.90;;;;;;5068335;28;20419;-41
2022/05/18 10:53:12;;;;;;;5.20;3.23;;;27.20;86.50;;;;;;5068819;28;20415;-44
2022/05/18 10:56:07;;;;;;;3.90;3.30;;;27.20;87.50;;;;;;5068772;28;20429;-39
2022/05/18 10:58:46;;;;;;;2.97;2.77;;;27.20;89.30;;;;;;5064692;28;20463;-46
2022/05/18 11:01:25;;;;;;;3.70;3.43;;;27.20;89.60;;;;;;5064173;28;21083;-44
2022/05/18 11:04:11;;;;;;;3.27;3.00;;;27.20;88.80;;;;;;5058330;28;20415;-41
2022/05/18 11:06:40;;;;;;;3.53;2.87;;;27.30;91.00;;;;;;5067813;28;20419;-40
2022/05/18 11:09:30;;;;;;;4.33;2.97;;;27.30;89.20;;;;;;5068848;28;20427;-40
2022/05/18 11:12:11;;;;;;;4.13;2.60;;;27.40;89.30;;;;;;5062778;28;20790;-42
2022/05/18 11:14:47;;;;;;;3.93;3.03;;;27.60;89.60;;;;;;5068668;28;20433;-43
2022/05/18 11:17:34;;;;;;;3.67;3.37;;;27.70;86.70;;;;;;5057599;28;20435;-43
2022/05/18 11:20:15;;;;;;;7.20;3.80;;;27.80;89.10;;;;;;5066588;28;20459;-43
2022/05/18 11:23:01;;;;;;;3.30;3.00;;;27.80;87.60;;;;;;5066549;28;20446;-39
2022/05/18 11:26:00;;;;;;;3.80;3.30;;;27.90;87.80;;;;;;5068507;28;20910;-42
2022/05/18 11:28:53;;;;;;;4.20;2.60;;;27.90;86.50;;;;;;5056653;28;20433;-42
2022/05/18 11:31:40;;;;;;;3.40;3.07;;;28.00;87.00;;;;;;5063880;28;20435;-40
2022/05/18 11:34:48;;;;;;;3.80;3.20;;;28.00;90.10;;;;;;5067699;28;20955;-47
2022/05/18 11:37:48;;;;;;;2.70;2.50;;;28.00;86.90;;;;;;5060512;28;20439;-39
2022/05/18 11:40:28;;;;;;;3.30;3.00;;;28.00;88.30;;;;;;5068873;28;20430;-44
2022/05/18 11:43:28;;;;;;;3.23;2.93;;;28.10;85.80;;;;;;5088581;28;20410;-40
2022/05/18 11:46:20;;;;;;;3.07;2.87;;;28.10;85.10;;;;;;5088536;28;20446;-42
2022/05/18 11:49:04;;;;;;;4.70;3.00;;;28.00;83.50;;;;;;5060523;28;21180;-42
2022/05/18 11:51:51;;;;;;;3.10;2.80;;;28.00;85.10;;;;;;5071182;28;20422;-41
2022/05/18 11:54:54;;;;;;;3.47;3.17;;;28.00;87.00;;;;;;5072250;28;20415;-40
2022/05/18 11:57:54;;;;;;;3.60;2.97;;;28.00;86.70;;;;;;5071640;28;20503;-41
2022/05/18 12:00:56;;;;;;;3.37;3.07;;;28.00;83.40;;;;;;5071536;28;20415;-42
2022/05/18 12:03:32;;;;;;;2.93;2.73;;;27.90;84.20;;;;;;5059453;28;20435;-44
2022/05/18 12:06:06;;;;;;;3.10;2.83;;;28.00;84.60;;;;;;5069273;28;20506;-39
2022/05/18 12:08:35;;;;;;;2.70;2.40;;;27.90;83.10;;;;;;5072069;28;20506;-40
2022/05/18 12:11:39;;;;;;;4.23;3.83;;;28.10;84.10;;;;;;5071250;28;20430;-41
2022/05/18 12:14:41;;;;;;;3.10;2.80;;;28.00;82.30;;;;;;5071915;28;20423;-42
2022/05/18 12:17:20;;;;;;;3.10;2.90;;;27.90;81.00;;;;;;5066666;28;20841;-44
2022/05/18 12:19:57;;;;;;;6.00;2.70;;;27.90;82.50;;;;;;5067966;28;20519;-43
2022/05/18 12:22:39;;;;;;;3.70;2.47;;;27.90;84.00;;;;;;5071140;28;20549;-43
2022/05/18 12:25:07;;;;;;;2.40;2.20;;;28.00;85.10;;;;;;5071665;28;20427;-42
2022/05/18 12:27:33;;;;;;;3.73;3.03;;;28.20;84.80;;;;;;5071282;28;20427;-41
2022/05/18 12:30:05;;;;;;;2.90;2.57;;;28.30;85.90;;;;;;5071120;28;20431;-39
2022/05/18 12:32:31;;;;;;;3.13;2.50;;;28.40;83.10;;;;;;5063905;28;20442;-42
2022/05/18 12:35:03;;;;;;;3.00;2.70;;;28.40;80.80;;;;;;5069776;28;20427;-40
2022/05/18 12:37:47;;;;;;;3.80;2.60;;;28.20;80.80;;;;;;5071245;28;20454;-42
2022/05/18 12:40:15;;;;;;;3.17;2.50;;;28.00;80.10;;;;;;5082861;28;20421;-43
2022/05/18 12:43:10;;;;;;;3.23;2.93;;;27.90;79.40;;;;;;5091370;28;20421;-40
2022/05/18 12:45:40;;;;;;;2.83;2.67;;;27.90;79.10;;;;;;5018380;28;20426;-40
2022/05/18 12:48:09;;;;;;;5.40;2.93;;;27.90;80.40;;;;;;5066465;28;20465;-44
2022/05/18 12:50:56;;;;;;;3.10;2.80;;;27.90;78.80;;;;;;5070469;28;20415;-44
2022/05/18 12:53:26;;;;;;;3.80;2.77;;;28.00;80.80;;;;;;5056820;28;20872;-42
2022/05/18 12:56:04;;;;;;;3.10;2.70;;;28.00;81.30;;;;;;5070684;28;20512;-44
2022/05/18 12:58:41;;;;;;;2.90;2.60;;;28.00;79.70;;;;;;5069451;28;20467;-39
2022/05/18 13:01:15;;;;;;;2.90;2.70;;;28.00;77.90;;;;;;5070143;28;20488;-43
2022/05/18 13:04:10;;;;;;;3.00;2.80;;;28.10;81.20;;;;;;5062192;28;20439;-42
2022/05/18 13:06:36;;;;;;;4.73;2.70;;;28.20;81.70;;;;;;5084492;28;20437;-42
2022/05/18 13:09:26;;;;;;;4.00;2.43;;;28.20;82.30;;;;;;5070724;28;20427;-41
2022/05/18 13:12:04;;;;;;;3.70;2.60;;;28.20;81.40;;;;;;5069903;28;20268;-45
2022/05/18 13:14:31;;;;;;;2.43;2.23;;;28.30;83.80;;;;;;5070479;28;20484;-40
2022/05/18 13:16:58;;;;;;;2.23;2.03;;;28.30;82.00;;;;;;5067741;28;20472;-39
2022/05/18 13:19:28;;;;;;;2.33;2.13;;;28.30;78.10;;;;;;5066891;28;20851;-41
2022/05/18 13:21:59;;;;;;;2.17;1.97;;;28.40;78.70;;;;;;5069912;28;20498;-40
2022/05/18 13:24:57;;;;;;;2.80;2.60;;;28.40;77.50;;;;;;5070289;28;20430;-42
2022/05/18 13:27:48;;;;;;;2.57;2.37;;;28.40;76.40;;;;;;5070318;28;20454;-42
2022/05/18 13:30:20;;;;;;;2.37;2.27;;;28.50;76.70;;;;;;5069602;28;21216;-42